Ridgedale, Missouri
Current Conditions -  °F | °C
As of 1:45 PM on Sunday 23 Nov 2014 (Local Time) from KBBG Reporting Station
Broken Clouds Broken Clouds  
Wind Chill: 63°   Ceiling: 1500
Heat Index: 63°   Visibility: 10mi
Dew Point: 55°   Wind: 7mph
Humidity: 77%   Direction: 160°SSE
Pressure: 29.35"   Gusts: NA
Location:  36.5°N, 93.22°W
Report Text: KBBG 231945Z 16006KT 10SM BKN015 17/13 A2935
Loading
Personal Weather Stations






























Interactive Weather Map New forecast layout! Learn more

10-Day Weather Forecast

Advertisements
Track Severe Weather on mobile